Time;durP1;ratioP1;P1;durP2;ratioP2;P2;SDS_P1;SDS_P2;PMS_P1;PMS_P2;Temp;Humidity;BMP_temperature;BMP_pressure;BME280_temperature;BME280_humidity;BME280_pressure;Samples;Min_cycle;Max_cycle;Signal;HPM_P1;HPM_P2
2020/12/01 00:01:22;;;;;;;0.75;0.75;;;-3.50;99.90;;;;;;5110270;28;20250;-74
2020/12/01 00:03:48;;;;;;;1.23;1.23;;;-3.70;99.90;;;;;;5110734;28;20560;-74
2020/12/01 00:06:14;;;;;;;0.40;0.40;;;-3.70;99.90;;;;;;5110957;28;20604;-74
2020/12/01 00:08:40;;;;;;;0.30;0.30;;;-3.80;99.90;;;;;;5110918;28;20155;-74
2020/12/01 00:11:07;;;;;;;0.22;0.22;;;-3.70;99.90;;;;;;5110848;28;20187;-74
2020/12/01 00:13:34;;;;;;;0.20;0.20;;;-3.70;99.90;;;;;;5110941;28;20148;-74
2020/12/01 00:16:00;;;;;;;0.20;0.20;;;-3.60;99.90;;;;;;5109570;28;20208;-74
2020/12/01 00:18:25;;;;;;;1.13;1.13;;;-3.60;99.90;;;;;;5109610;28;20167;-73
2020/12/01 00:20:51;;;;;;;0.28;0.28;;;-3.50;99.90;;;;;;5110699;28;20247;-74
2020/12/01 00:23:17;;;;;;;1.27;1.27;;;-3.40;99.90;;;;;;5109892;28;20174;-73
2020/12/01 00:25:45;;;;;;;0.20;0.20;;;-3.30;99.90;;;;;;5109404;28;20171;-73
2020/12/01 00:28:13;;;;;;;0.10;0.10;;;-3.40;99.90;;;;;;5110765;28;20152;-74
2020/12/01 00:30:42;;;;;;;1.17;1.17;;;-3.40;99.90;;;;;;5110491;28;20198;-74
2020/12/01 00:33:10;;;;;;;0.10;0.10;;;-3.40;99.90;;;;;;5109375;28;20163;-73
2020/12/01 00:35:37;;;;;;;0.80;0.80;;;-3.40;99.90;;;;;;5110545;28;20238;-73
2020/12/01 00:38:03;;;;;;;0.60;0.60;;;-3.50;99.90;;;;;;5110667;28;20215;-73
2020/12/01 00:40:29;;;;;;;0.30;0.30;;;-3.60;99.90;;;;;;5110109;28;20223;-74
2020/12/01 00:42:54;;;;;;;0.40;0.40;;;-3.60;99.90;;;;;;5110468;28;20211;-73
2020/12/01 00:45:21;;;;;;;0.20;0.20;;;-3.60;99.90;;;;;;5110299;28;20155;-75
2020/12/01 00:47:47;;;;;;;0.47;0.47;;;-3.60;99.90;;;;;;5108964;28;20239;-73
2020/12/01 00:50:20;;;;;;;0.52;0.52;;;-3.60;99.90;;;;;;5108913;28;20201;-73
2020/12/01 00:52:46;;;;;;;0.93;0.93;;;-3.70;99.90;;;;;;5110370;28;20212;-74
2020/12/01 00:55:12;;;;;;;1.27;1.17;;;-3.60;99.90;;;;;;5110288;28;20162;-74
2020/12/01 00:57:38;;;;;;;0.15;0.15;;;-3.50;99.90;;;;;;5110159;28;20628;-73
2020/12/01 01:00:07;;;;;;;0.38;0.38;;;-3.70;99.90;;;;;;5108642;28;20214;-73
2020/12/01 01:02:33;;;;;;;2.65;2.47;;;-3.70;99.90;;;;;;5108780;28;20163;-73
2020/12/01 01:04:59;;;;;;;5.32;4.55;;;-3.70;99.90;;;;;;5110008;28;20173;-73
2020/12/01 01:07:25;;;;;;;0.80;0.60;;;-3.70;99.90;;;;;;5108281;28;20202;-74
2020/12/01 01:09:51;;;;;;;0.32;0.32;;;-3.80;99.90;;;;;;5110020;28;20155;-73
2020/12/01 01:12:17;;;;;;;0.73;0.73;;;-3.90;99.90;;;;;;5110016;28;20156;-74
2020/12/01 01:14:43;;;;;;;2.53;2.42;;;-4.00;99.90;;;;;;5108719;28;20178;-73
2020/12/01 01:17:12;;;;;;;0.88;0.88;;;-4.00;99.90;;;;;;5109885;28;20155;-74
2020/12/01 01:19:38;;;;;;;0.40;0.40;;;-3.90;99.90;;;;;;5110055;28;20199;-74
2020/12/01 01:22:04;;;;;;;1.45;1.45;;;-3.90;99.90;;;;;;5109719;28;20186;-74
2020/12/01 01:24:30;;;;;;;0.32;0.32;;;-4.00;99.90;;;;;;5109727;28;20160;-73
2020/12/01 01:26:56;;;;;;;1.10;0.93;;;-4.10;99.90;;;;;;5108311;28;20231;-73
2020/12/01 01:29:23;;;;;;;0.25;0.25;;;-4.10;99.90;;;;;;5109566;28;20199;-73
2020/12/01 01:31:54;;;;;;;0.98;0.98;;;-4.00;99.90;;;;;;5108336;28;20167;-73
2020/12/01 01:34:21;;;;;;;0.20;0.20;;;-4.10;99.90;;;;;;5108028;28;20171;-74
2020/12/01 01:36:47;;;;;;;0.65;0.65;;;-4.30;99.90;;;;;;5108210;28;20201;-73
2020/12/01 01:39:14;;;;;;;3.08;2.85;;;-4.20;99.90;;;;;;5107851;28;20298;-73
2020/12/01 01:41:40;;;;;;;0.65;0.65;;;-4.40;99.90;;;;;;5109507;28;20163;-74
2020/12/01 01:44:20;;;;;;;0.60;0.60;;;-4.30;99.90;;;;;;5109598;28;20159;-74
2020/12/01 01:46:51;;;;;;;0.32;0.32;;;-4.50;99.90;;;;;;5108232;28;20599;-74
2020/12/01 01:49:21;;;;;;;0.32;0.32;;;-4.60;99.90;;;;;;5109341;28;20246;-73
2020/12/01 01:51:56;;;;;;;2.45;2.35;;;-4.80;99.90;;;;;;5109625;28;20189;-74
2020/12/01 01:54:25;;;;;;;3.30;1.95;;;-4.70;99.90;;;;;;5109409;28;20216;-73
2020/12/01 01:56:59;;;;;;;1.40;1.40;;;-4.80;99.90;;;;;;5109367;28;20616;-73
2020/12/01 01:59:27;;;;;;;1.02;1.02;;;-4.90;99.90;;;;;;5109226;28;20195;-73
2020/12/01 02:01:54;;;;;;;0.68;0.68;;;-4.70;99.90;;;;;;5109371;28;20185;-74
2020/12/01 02:04:21;;;;;;;0.55;0.55;;;-4.70;99.90;;;;;;5107916;28;20168;-73
2020/12/01 02:06:57;;;;;;;1.02;1.02;;;-4.80;99.90;;;;;;5109361;28;20242;-73
2020/12/01 02:09:51;;;;;;;0.35;0.35;;;-4.80;99.90;;;;;;5109345;28;20191;-74
2020/12/01 02:12:19;;;;;;;0.85;0.80;;;-4.60;99.90;;;;;;5109232;28;20168;-74
2020/12/01 02:14:55;;;;;;;1.10;1.05;;;-4.50;99.90;;;;;;5107944;28;20183;-73
2020/12/01 02:17:28;;;;;;;0.88;0.88;;;-4.40;99.90;;;;;;5109241;28;20181;-73
2020/12/01 02:20:04;;;;;;;0.30;0.30;;;-4.50;99.90;;;;;;5107874;28;20294;-73
2020/12/01 02:22:30;;;;;;;0.20;0.20;;;-4.70;99.90;;;;;;5107685;28;20216;-73
2020/12/01 02:24:57;;;;;;;4.07;3.80;;;-4.70;99.90;;;;;;5109075;28;20156;-73
2020/12/01 02:27:25;;;;;;;1.38;1.38;;;-4.70;99.90;;;;;;5107832;28;20189;-72
2020/12/01 02:29:54;;;;;;;0.30;0.30;;;-4.70;99.90;;;;;;5109111;28;20179;-72
2020/12/01 02:32:24;;;;;;;0.47;0.47;;;-4.70;99.90;;;;;;5107628;28;20167;-73
2020/12/01 02:34:52;;;;;;;0.20;0.20;;;-4.60;99.90;;;;;;5109102;28;20162;-73
2020/12/01 02:37:23;;;;;;;0.20;0.20;;;-4.40;99.90;;;;;;5107857;28;20167;-72
2020/12/01 02:39:51;;;;;;;1.23;1.23;;;-4.30;99.90;;;;;;5108649;28;20286;-73
2020/12/01 02:42:22;;;;;;;0.22;0.22;;;-4.40;99.90;;;;;;5107696;28;20655;-73
2020/12/01 02:44:52;;;;;;;0.28;0.28;;;-4.50;99.90;;;;;;5108916;28;20639;-73
2020/12/01 02:47:18;;;;;;;0.73;0.73;;;-4.70;99.90;;;;;;5111012;28;20155;-73
2020/12/01 02:49:45;;;;;;;0.65;0.65;;;-4.80;99.90;;;;;;5112570;28;20211;-73
2020/12/01 02:52:11;;;;;;;0.63;0.63;;;-4.90;99.90;;;;;;5111043;28;20178;-73
2020/12/01 02:54:37;;;;;;;0.40;0.40;;;-5.00;99.90;;;;;;5111267;28;20202;-73
2020/12/01 02:57:03;;;;;;;0.82;0.82;;;-5.00;99.90;;;;;;5110963;28;20172;-74
2020/12/01 02:59:29;;;;;;;0.35;0.35;;;-4.90;99.90;;;;;;5112347;28;20224;-73
2020/12/01 03:01:55;;;;;;;0.20;0.20;;;-5.00;99.90;;;;;;5110974;28;20160;-74
2020/12/01 03:04:22;;;;;;;0.35;0.35;;;-4.90;99.90;;;;;;5112081;28;20165;-74
2020/12/01 03:06:47;;;;;;;0.68;0.68;;;-4.90;99.90;;;;;;5111994;28;20235;-74
2020/12/01 03:09:16;;;;;;;0.20;0.20;;;-5.00;99.90;;;;;;5111876;28;20217;-72
2020/12/01 03:11:42;;;;;;;0.20;0.20;;;-5.00;99.90;;;;;;5111879;28;20155;-73
2020/12/01 03:14:08;;;;;;;0.30;0.30;;;-4.90;99.90;;;;;;5111935;28;20162;-73
2020/12/01 03:16:34;;;;;;;0.30;0.30;;;-5.00;99.90;;;;;;5110444;28;20167;-72
2020/12/01 03:19:00;;;;;;;0.30;0.30;;;-5.10;99.90;;;;;;5111633;28;20679;-72
2020/12/01 03:21:26;;;;;;;1.13;0.93;;;-4.90;99.90;;;;;;5111743;28;20265;-74
2020/12/01 03:23:52;;;;;;;0.32;0.32;;;-5.00;99.90;;;;;;5110413;28;20167;-73
2020/12/01 03:26:19;;;;;;;0.20;0.20;;;-4.90;99.90;;;;;;5111810;28;20147;-73
2020/12/01 03:28:46;;;;;;;0.30;0.30;;;-5.00;99.90;;;;;;5111446;28;20187;-74
2020/12/01 03:31:13;;;;;;;0.30;0.30;;;-4.90;99.90;;;;;;5111541;28;20152;-72
2020/12/01 03:33:39;;;;;;;0.25;0.25;;;-4.80;99.90;;;;;;5111201;28;20152;-73
2020/12/01 03:36:05;;;;;;;0.20;0.20;;;-4.70;99.90;;;;;;5111177;28;20160;-73
2020/12/01 03:38:31;;;;;;;3.47;3.20;;;-4.80;99.90;;;;;;5110921;28;20215;-72
2020/12/01 03:40:57;;;;;;;0.28;0.28;;;-4.80;99.90;;;;;;5111261;28;20172;-73
2020/12/01 03:43:23;;;;;;;0.20;0.20;;;-4.90;99.90;;;;;;5110916;28;20155;-72
2020/12/01 03:45:49;;;;;;;0.40;0.40;;;-4.70;99.90;;;;;;5111036;28;20203;-73
2020/12/01 03:48:15;;;;;;;0.20;0.20;;;-4.50;99.90;;;;;;5109560;28;20628;-73
2020/12/01 03:50:41;;;;;;;0.50;0.50;;;-4.30;99.90;;;;;;5109734;28;20199;-73
2020/12/01 03:53:08;;;;;;;0.52;0.52;;;-4.50;99.90;;;;;;5109575;28;20174;-73
2020/12/01 03:55:34;;;;;;;0.93;0.93;;;-4.70;99.90;;;;;;5110864;28;20164;-73
2020/12/01 03:58:00;;;;;;;0.43;0.43;;;-4.70;99.90;;;;;;5109049;28;20290;-73
2020/12/01 04:00:29;;;;;;;0.20;0.20;;;-4.80;99.90;;;;;;5110697;28;20242;-73
2020/12/01 04:02:56;;;;;;;0.20;0.20;;;-4.90;99.90;;;;;;5110792;28;20204;-73
2020/12/01 04:05:24;;;;;;;2.47;1.25;;;-5.00;99.90;;;;;;5110683;28;20156;-73
2020/12/01 04:07:55;;;;;;;0.30;0.30;;;-5.00;99.90;;;;;;5110532;28;20190;-73
2020/12/01 04:10:24;;;;;;;0.30;0.30;;;-5.10;99.90;;;;;;5110511;28;20177;-73
2020/12/01 04:12:51;;;;;;;0.10;0.10;;;-5.20;99.90;;;;;;5110707;28;20158;-73
2020/12/01 04:15:19;;;;;;;0.50;0.50;;;-5.30;99.90;;;;;;5110311;28;20168;-73
2020/12/01 04:17:45;;;;;;;0.90;0.88;;;-5.30;99.90;;;;;;5110050;28;20163;-73
2020/12/01 04:20:13;;;;;;;0.30;0.30;;;-5.40;99.90;;;;;;5109095;28;20236;-73
2020/12/01 04:22:39;;;;;;;0.50;0.50;;;-5.40;99.90;;;;;;5110230;28;20167;-73
2020/12/01 04:25:08;;;;;;;0.30;0.30;;;-5.40;99.90;;;;;;5110445;28;20194;-73
2020/12/01 04:27:35;;;;;;;0.20;0.20;;;-5.40;99.90;;;;;;5109982;28;20159;-73
2020/12/01 04:30:02;;;;;;;0.10;0.10;;;-5.20;99.90;;;;;;5108873;28;20174;-73
2020/12/01 04:32:28;;;;;;;0.95;0.95;;;-5.00;99.90;;;;;;5110122;28;20156;-73
2020/12/01 04:34:54;;;;;;;0.47;0.47;;;-5.00;99.90;;;;;;5110009;28;20598;-73
2020/12/01 04:37:20;;;;;;;0.50;0.50;;;-4.80;99.90;;;;;;5110006;28;20182;-73
2020/12/01 04:39:46;;;;;;;0.32;0.32;;;-4.90;99.90;;;;;;5109569;28;20283;-73
2020/12/01 04:42:17;;;;;;;0.45;0.45;;;-4.90;99.90;;;;;;5108463;28;20167;-73
2020/12/01 04:45:09;;;;;;;0.30;0.30;;;-5.10;99.90;;;;;;5109865;28;20634;-73
2020/12/01 04:47:56;;;;;;;0.20;0.20;;;-5.20;99.90;;;;;;5109713;28;20223;-73
2020/12/01 04:50:36;;;;;;;0.30;0.30;;;-5.10;99.90;;;;;;5109183;28;20159;-72
2020/12/01 04:53:21;;;;;;;0.73;0.73;;;-5.10;99.90;;;;;;5109266;28;20175;-72
2020/12/01 04:55:58;;;;;;;0.28;0.28;;;-5.30;99.90;;;;;;5109583;28;20219;-73
2020/12/01 04:58:27;;;;;;;0.22;0.22;;;-5.40;99.90;;;;;;5109197;28;20220;-73
2020/12/01 05:00:58;;;;;;;0.20;0.20;;;-5.30;99.90;;;;;;5109539;28;20193;-72
2020/12/01 05:03:53;;;;;;;0.73;0.73;;;-5.20;99.90;;;;;;5109163;28;20185;-73
2020/12/01 05:09:42;;;;;;;0.20;0.20;;;-5.20;99.90;;;;;;5108406;28;20218;-73
2020/12/01 05:12:36;;;;;;;0.20;0.20;;;-5.10;99.90;;;;;;5109213;28;20159;-73
2020/12/01 05:15:21;;;;;;;1.13;1.13;;;-4.90;99.90;;;;;;5108425;28;20491;-73
2020/12/01 05:18:18;;;;;;;0.25;0.25;;;-4.70;99.90;;;;;;5108855;28;20221;-73
2020/12/01 05:20:52;;;;;;;0.30;0.30;;;-4.60;99.90;;;;;;5107287;28;20303;-73
2020/12/01 05:23:45;;;;;;;0.75;0.75;;;-4.50;99.90;;;;;;5107469;28;20223;-73
2020/12/01 05:26:15;;;;;;;1.70;1.65;;;-4.50;99.90;;;;;;5107810;28;20193;-74
2020/12/01 05:28:50;;;;;;;0.20;0.20;;;-4.40;99.90;;;;;;5108958;28;20283;-74
2020/12/01 05:31:18;;;;;;;0.22;0.22;;;-4.30;99.90;;;;;;5109130;28;20196;-73
2020/12/01 05:33:44;;;;;;;1.45;1.45;;;-4.30;99.90;;;;;;5109145;28;20164;-74
2020/12/01 05:36:24;;;;;;;0.47;0.47;;;-4.30;99.90;;;;;;5108090;28;20245;-73
2020/12/01 05:39:06;;;;;;;1.52;1.50;;;-4.40;99.90;;;;;;5109024;28;20274;-72
2020/12/01 05:41:37;;;;;;;0.70;0.70;;;-4.40;99.90;;;;;;5107379;28;20167;-73
2020/12/01 05:44:23;;;;;;;0.35;0.35;;;-4.50;99.90;;;;;;5107886;28;20232;-73
2020/12/01 05:47:04;;;;;;;1.67;1.67;;;-4.40;99.90;;;;;;5107773;28;20234;-74
2020/12/01 05:50:04;;;;;;;1.33;1.33;;;-4.50;99.90;;;;;;5109125;28;20191;-75
2020/12/01 05:52:43;;;;;;;1.67;1.58;;;-4.40;99.90;;;;;;5109375;28;20232;-75
2020/12/01 05:55:27;;;;;;;1.00;1.00;;;-4.50;99.90;;;;;;5109570;28;20189;-76
2020/12/01 05:58:19;;;;;;;0.40;0.40;;;-4.50;99.90;;;;;;5108318;28;20195;-74
2020/12/01 06:00:44;;;;;;;0.20;0.20;;;-4.50;99.90;;;;;;5105427;28;20278;-73
2020/12/01 06:03:28;;;;;;;1.38;1.38;;;-4.60;99.90;;;;;;5107864;28;20164;-73
2020/12/01 06:05:58;;;;;;;1.98;1.88;;;-4.60;99.90;;;;;;5107484;28;20266;-72
2020/12/01 06:08:33;;;;;;;0.30;0.30;;;-4.70;99.90;;;;;;5108510;28;20719;-75
2020/12/01 06:11:30;;;;;;;0.20;0.20;;;-4.80;99.90;;;;;;5108284;28;20170;-73
2020/12/01 06:14:24;;;;;;;0.28;0.28;;;-4.60;99.90;;;;;;5106976;28;20168;-74
2020/12/01 06:16:57;;;;;;;0.57;0.57;;;-4.60;99.90;;;;;;5108736;28;20155;-73
2020/12/01 06:19:41;;;;;;;1.40;1.40;;;-4.60;99.90;;;;;;5108401;28;20199;-73
2020/12/01 06:22:17;;;;;;;1.05;1.05;;;-4.60;99.90;;;;;;5109934;28;20193;-74
2020/12/01 06:25:05;;;;;;;0.28;0.28;;;-4.60;99.90;;;;;;5113742;28;20175;-74
2020/12/01 06:27:59;;;;;;;1.27;1.20;;;-4.60;99.90;;;;;;5110780;28;20616;-74
2020/12/01 06:31:07;;;;;;;1.77;1.75;;;-4.70;99.90;;;;;;5111921;28;20196;-73
2020/12/01 06:33:52;;;;;;;0.75;0.75;;;-4.60;99.90;;;;;;5111810;28;20557;-73
2020/12/01 06:36:43;;;;;;;0.30;0.30;;;-4.60;99.90;;;;;;5110750;28;20258;-74
2020/12/01 06:39:41;;;;;;;0.40;0.40;;;-4.70;99.90;;;;;;5111280;28;20523;-74
2020/12/01 06:42:16;;;;;;;1.50;1.40;;;-4.90;99.90;;;;;;5112069;28;20166;-74
2020/12/01 06:44:45;;;;;;;0.40;0.40;;;-4.70;99.90;;;;;;5111223;28;20148;-73
2020/12/01 06:47:12;;;;;;;0.20;0.20;;;-4.70;99.90;;;;;;5111228;28;20156;-73
2020/12/01 06:49:39;;;;;;;0.68;0.68;;;-4.80;99.90;;;;;;5111747;28;20282;-73
2020/12/01 06:52:14;;;;;;;0.20;0.20;;;-4.70;99.90;;;;;;5111274;28;20159;-73
2020/12/01 06:54:48;;;;;;;2.53;2.38;;;-4.80;99.90;;;;;;5112038;28;20170;-73
2020/12/01 06:57:41;;;;;;;2.22;2.13;;;-4.90;99.90;;;;;;5110258;28;20166;-74
2020/12/01 07:00:08;;;;;;;1.80;1.70;;;-4.80;99.90;;;;;;5111237;28;20224;-74
2020/12/01 07:02:38;;;;;;;1.25;1.25;;;-4.80;99.90;;;;;;5109342;28;20183;-73
2020/12/01 07:05:29;;;;;;;0.88;0.88;;;-4.80;99.90;;;;;;5111574;28;20154;-73
2020/12/01 07:07:55;;;;;;;0.57;0.57;;;-4.70;99.90;;;;;;5111591;28;20251;-73
2020/12/01 07:10:21;;;;;;;0.47;0.47;;;-4.50;99.90;;;;;;5111547;28;20515;-73
2020/12/01 07:12:55;;;;;;;0.98;0.98;;;-4.30;99.90;;;;;;5109899;28;20540;-73
2020/12/01 07:15:43;;;;;;;2.38;2.28;;;-4.20;99.90;;;;;;5110304;28;20167;-74
2020/12/01 07:18:25;;;;;;;3.50;3.03;;;-4.10;99.90;;;;;;5109659;28;20199;-73
2020/12/01 07:21:19;;;;;;;1.73;1.65;;;-4.00;99.90;;;;;;5110016;28;20648;-73
2020/12/01 07:24:13;;;;;;;1.35;1.35;;;-3.80;99.90;;;;;;5110203;28;20172;-73
2020/12/01 07:26:49;;;;;;;3.03;2.53;;;-3.80;99.90;;;;;;5110204;28;20160;-75
2020/12/01 07:29:28;;;;;;;0.30;0.30;;;-3.50;99.90;;;;;;5111684;28;20191;-74
2020/12/01 07:32:30;;;;;;;0.25;0.25;;;-3.40;99.90;;;;;;5109857;28;20165;-74
2020/12/01 07:35:31;;;;;;;1.67;1.58;;;-3.40;99.90;;;;;;5111159;28;20190;-73
2020/12/01 07:38:03;;;;;;;1.10;1.10;;;-3.40;99.90;;;;;;5105970;28;20202;-73
2020/12/01 07:40:41;;;;;;;0.52;0.52;;;-3.40;99.90;;;;;;5109491;28;20231;-73
2020/12/01 07:43:12;;;;;;;0.30;0.30;;;-3.20;99.90;;;;;;5107402;28;20266;-74
2020/12/01 07:45:38;;;;;;;0.82;0.73;;;-3.10;99.90;;;;;;5101897;28;20163;-73
2020/12/01 07:48:04;;;;;;;0.30;0.30;;;-3.00;99.90;;;;;;5111038;28;20194;-73
2020/12/01 07:50:32;;;;;;;1.60;1.50;;;-2.80;99.90;;;;;;5111224;28;20181;-73
2020/12/01 07:53:02;;;;;;;0.57;0.57;;;-2.50;99.90;;;;;;5109675;28;20174;-74
2020/12/01 07:55:36;;;;;;;1.48;1.42;;;-1.90;99.90;;;;;;5110680;28;20167;-74
2020/12/01 07:58:18;;;;;;;0.73;0.73;;;-1.10;99.90;;;;;;5110705;28;20250;-74
2020/12/01 08:00:51;;;;;;;1.40;1.40;;;-0.40;99.90;;;;;;5110749;28;20183;-74
2020/12/01 08:03:23;;;;;;;0.40;0.40;;;1.00;99.90;;;;;;5110321;28;20182;-74
2020/12/01 08:05:50;;;;;;;0.20;0.20;;;1.70;99.90;;;;;;5109695;28;20624;-74
2020/12/01 08:08:17;;;;;;;0.10;0.10;;;2.70;99.90;;;;;;5108263;28;20194;-73
2020/12/01 08:10:46;;;;;;;0.50;0.50;;;2.80;99.90;;;;;;5109519;28;20616;-73
2020/12/01 08:13:14;;;;;;;0.43;0.43;;;2.50;99.90;;;;;;5109356;28;20202;-72
2020/12/01 08:15:40;;;;;;;1.50;1.45;;;2.50;99.90;;;;;;5109923;28;20239;-74
2020/12/01 08:18:12;;;;;;;0.20;0.20;;;2.60;99.90;;;;;;5109055;28;20195;-73
2020/12/01 08:20:38;;;;;;;1.08;1.08;;;3.70;99.90;;;;;;5109997;28;20195;-72
2020/12/01 08:23:17;;;;;;;0.52;0.52;;;3.80;99.90;;;;;;5110604;28;20191;-74
2020/12/01 08:26:05;;;;;;;0.45;0.45;;;4.40;99.90;;;;;;5110238;28;20616;-74
2020/12/01 08:28:42;;;;;;;1.77;1.67;;;4.80;99.90;;;;;;5108472;28;20215;-74
2020/12/01 08:31:23;;;;;;;0.88;0.88;;;5.90;99.90;;;;;;5108531;28;20266;-73
2020/12/01 08:34:04;;;;;;;1.55;1.45;;;6.20;99.90;;;;;;5110286;28;20213;-73
2020/12/01 08:36:41;;;;;;;0.10;0.10;;;6.40;99.90;;;;;;5110267;28;20232;-73
2020/12/01 08:39:30;;;;;;;1.52;1.42;;;6.20;99.90;;;;;;5107951;28;20231;-74
2020/12/01 08:42:17;;;;;;;2.70;2.50;;;6.10;99.90;;;;;;5089840;28;20162;-73
2020/12/01 08:45:02;;;;;;;0.52;0.52;;;5.20;99.90;;;;;;5088778;28;20205;-73
2020/12/01 08:47:30;;;;;;;0.10;0.10;;;5.70;99.90;;;;;;5088230;28;20160;-73
2020/12/01 08:49:56;;;;;;;0.57;0.57;;;6.90;99.90;;;;;;5088145;28;20626;-73
2020/12/01 08:52:40;;;;;;;0.20;0.20;;;8.10;99.90;;;;;;5088532;28;20175;-74
2020/12/01 08:55:26;;;;;;;1.20;1.10;;;9.10;99.90;;;;;;5089491;28;20217;-74
2020/12/01 08:58:04;;;;;;;0.80;0.55;;;9.30;99.90;;;;;;5089249;28;20191;-73
2020/12/01 09:00:33;;;;;;;1.55;1.10;;;7.60;99.90;;;;;;5089301;28;20191;-73
2020/12/01 09:03:10;;;;;;;0.80;0.80;;;7.40;99.90;;;;;;5089692;28;20152;-74
2020/12/01 09:05:46;;;;;;;4.47;3.22;;;7.20;99.90;;;;;;5088160;28;20160;-73
2020/12/01 09:19:52;;;;;;;0.43;0.43;;;7.00;99.90;;;;;;5089339;28;20229;-74
2020/12/01 09:22:32;;;;;;;0.85;0.85;;;8.50;99.90;;;;;;5105962;28;20167;-74
2020/12/01 09:25:17;;;;;;;1.38;1.38;;;8.70;99.90;;;;;;5108064;28;20248;-74
2020/12/01 09:27:45;;;;;;;0.95;0.95;;;7.90;99.90;;;;;;5109123;28;20232;-73
2020/12/01 09:30:28;;;;;;;1.55;1.27;;;7.00;99.90;;;;;;5109596;28;20202;-73
2020/12/01 09:32:55;;;;;;;0.85;0.85;;;6.60;99.90;;;;;;5099881;28;20233;-73
2020/12/01 09:35:21;;;;;;;1.02;1.02;;;6.70;99.90;;;;;;5096489;28;20175;-73
2020/12/01 09:37:47;;;;;;;1.25;1.23;;;6.80;99.90;;;;;;5102164;28;20528;-73
2020/12/01 09:40:14;;;;;;;0.43;0.40;;;7.10;99.90;;;;;;5107625;28;20261;-73
2020/12/01 09:42:41;;;;;;;0.28;0.28;;;7.10;99.90;;;;;;5089598;28;20207;-73
2020/12/01 09:49:59;;;;;;;1.23;1.13;;;9.50;99.90;;;;;;5097900;28;20197;-74
2020/12/01 09:52:33;;;;;;;0.70;0.70;;;9.80;99.90;;;;;;5109438;28;20207;-73
2020/12/01 09:55:37;;;;;;;1.17;1.17;;;10.30;99.90;;;;;;5109232;28;20156;-73
2020/12/01 09:57:59;;;;;;;2.30;2.10;;;10.10;99.90;;;;;;5113469;28;20266;-73
2020/12/01 10:08:25;;;;;;;1.77;1.15;;;10.80;99.90;;;;;;5126387;28;20234;-73
2020/12/01 10:25:23;;;;;;;1.90;1.13;;;9.30;99.90;;;;;;5092455;28;20159;-74
2020/12/01 10:35:31;;;;;;;0.22;0.22;;;8.60;99.90;;;;;;5113437;28;20199;-74
2020/12/01 10:37:59;;;;;;;2.15;2.05;;;8.30;99.90;;;;;;5091756;28;20212;-74
2020/12/01 10:40:26;;;;;;;0.77;0.77;;;7.80;99.90;;;;;;5093138;28;20270;-74
2020/12/01 10:42:53;;;;;;;1.17;1.17;;;7.90;99.90;;;;;;5112472;28;20190;-74
2020/12/01 10:45:20;;;;;;;0.65;0.65;;;8.00;99.90;;;;;;5110953;28;20201;-73
2020/12/01 10:47:46;;;;;;;0.82;0.65;;;7.90;99.90;;;;;;5112269;28;20187;-73
2020/12/01 10:50:14;;;;;;;1.52;1.42;;;8.10;99.90;;;;;;5111009;28;20174;-73
2020/12/01 10:52:40;;;;;;;0.50;0.50;;;7.50;99.90;;;;;;5111095;28;20182;-73
2020/12/01 10:55:07;;;;;;;0.57;0.57;;;7.10;99.90;;;;;;5112241;28;20587;-74
2020/12/01 10:57:35;;;;;;;0.70;0.70;;;7.70;99.90;;;;;;5110716;28;20168;-74
2020/12/01 11:00:07;;;;;;;1.77;1.27;;;8.20;99.90;;;;;;5112048;28;20244;-74
2020/12/01 11:02:32;;;;;;;0.52;0.52;;;8.20;99.90;;;;;;5112070;28;20604;-74
2020/12/01 11:04:58;;;;;;;2.13;1.95;;;7.90;99.90;;;;;;5110850;28;20221;-73
2020/12/01 11:07:24;;;;;;;0.75;0.75;;;7.80;99.90;;;;;;5109367;28;20163;-73
2020/12/01 11:09:50;;;;;;;0.70;0.70;;;7.90;99.90;;;;;;5111570;28;20170;-73
2020/12/01 11:12:16;;;;;;;1.70;1.60;;;8.10;99.90;;;;;;5111489;28;20282;-74
2020/12/01 11:14:42;;;;;;;1.20;1.13;;;8.40;99.90;;;;;;5112040;28;20167;-74
2020/12/01 11:17:07;;;;;;;0.75;0.60;;;8.20;99.90;;;;;;5111877;28;20175;-73
2020/12/01 11:19:34;;;;;;;2.63;2.47;;;7.70;99.90;;;;;;5110140;28;20199;-73
2020/12/01 11:22:00;;;;;;;1.05;1.00;;;7.70;99.90;;;;;;5110119;28;20308;-73
2020/12/01 11:24:26;;;;;;;0.77;0.77;;;7.70;99.90;;;;;;5111785;28;20152;-74
2020/12/01 11:26:51;;;;;;;1.27;0.98;;;7.50;99.90;;;;;;5111756;28;20156;-74
2020/12/01 11:29:17;;;;;;;3.25;1.95;;;7.40;99.90;;;;;;5111167;28;20187;-74
2020/12/01 11:31:46;;;;;;;1.48;1.38;;;6.80;99.90;;;;;;5111404;28;20152;-74
2020/12/01 11:34:12;;;;;;;1.20;1.20;;;7.00;99.90;;;;;;5111625;28;20191;-74
2020/12/01 11:36:40;;;;;;;0.38;0.38;;;6.90;99.90;;;;;;5111531;28;20166;-75
2020/12/01 11:39:12;;;;;;;1.27;1.17;;;6.90;99.90;;;;;;5109929;28;20230;-75
2020/12/01 11:41:37;;;;;;;0.95;0.95;;;7.20;99.90;;;;;;5111154;28;20168;-75
2020/12/01 11:44:04;;;;;;;0.55;0.30;;;7.10;99.90;;;;;;5109676;28;20687;-74
2020/12/01 11:46:30;;;;;;;0.77;0.77;;;6.90;99.90;;;;;;5111490;28;20147;-74
2020/12/01 11:49:01;;;;;;;0.88;0.88;;;7.00;99.90;;;;;;5110057;28;20206;-73
2020/12/01 11:51:32;;;;;;;1.02;1.02;;;7.20;99.90;;;;;;5111257;28;20182;-74
2020/12/01 11:53:58;;;;;;;3.25;1.83;;;7.40;99.90;;;;;;5092170;28;20203;-73
2020/12/01 11:56:24;;;;;;;1.90;0.95;;;7.40;99.90;;;;;;5090810;28;20160;-74
2020/12/01 11:58:50;;;;;;;0.30;0.30;;;7.60;99.90;;;;;;5105133;28;20214;-74
2020/12/01 12:01:16;;;;;;;2.72;2.50;;;7.50;99.90;;;;;;5109621;28;20171;-74
2020/12/01 12:03:43;;;;;;;0.45;0.45;;;7.20;99.90;;;;;;5095230;28;20241;-74
2020/12/01 12:06:09;;;;;;;0.77;0.77;;;6.80;99.90;;;;;;5090428;28;20211;-74
2020/12/01 12:08:35;;;;;;;0.75;0.70;;;6.70;99.90;;;;;;5102428;28;20263;-73
2020/12/01 12:11:01;;;;;;;0.08;0.08;;;6.40;99.90;;;;;;5110934;28;20170;-73
2020/12/01 12:13:28;;;;;;;1.30;1.30;;;6.60;99.90;;;;;;5109507;28;20289;-74
2020/12/01 12:15:54;;;;;;;1.13;1.13;;;6.60;99.90;;;;;;5109186;28;20717;-74
2020/12/01 12:18:20;;;;;;;1.27;1.02;;;6.50;99.90;;;;;;5110506;28;20167;-74
2020/12/01 12:20:46;;;;;;;0.77;0.77;;;6.60;99.90;;;;;;5110128;28;20198;-74
2020/12/01 12:23:12;;;;;;;3.55;1.48;;;5.70;99.90;;;;;;5110042;28;20198;-74
2020/12/01 12:25:38;;;;;;;0.80;0.80;;;4.90;99.90;;;;;;5109037;28;20160;-75
2020/12/01 12:28:04;;;;;;;0.75;0.75;;;4.50;99.90;;;;;;5110289;28;20155;-74
2020/12/01 12:30:30;;;;;;;0.65;0.65;;;4.20;99.90;;;;;;5110415;28;20209;-74
2020/12/01 12:32:56;;;;;;;1.05;1.05;;;4.10;99.90;;;;;;5108785;28;20199;-74
2020/12/01 12:35:23;;;;;;;0.63;0.63;;;4.00;99.90;;;;;;5109186;28;20203;-74
2020/12/01 12:37:49;;;;;;;1.88;1.13;;;3.60;99.90;;;;;;5110303;28;20225;-74
2020/12/01 12:40:16;;;;;;;0.32;0.32;;;3.40;99.90;;;;;;5109888;28;20222;-74
2020/12/01 12:42:42;;;;;;;1.13;1.13;;;3.40;99.90;;;;;;5110240;28;20199;-74
2020/12/01 12:45:09;;;;;;;0.77;0.60;;;3.30;99.90;;;;;;5109621;28;20170;-75
2020/12/01 12:47:34;;;;;;;0.57;0.57;;;3.20;99.90;;;;;;5109971;28;20601;-74
2020/12/01 12:50:00;;;;;;;0.90;0.90;;;3.10;99.90;;;;;;5109958;28;20238;-74
2020/12/01 12:52:26;;;;;;;0.73;0.73;;;3.10;99.90;;;;;;5108323;28;20198;-74
2020/12/01 12:54:52;;;;;;;0.77;0.77;;;3.10;99.90;;;;;;5110029;28;20152;-75
2020/12/01 12:57:18;;;;;;;0.47;0.47;;;3.00;99.90;;;;;;5109923;28;20163;-74
2020/12/01 12:59:44;;;;;;;0.28;0.28;;;2.80;99.90;;;;;;5108135;28;20206;-74
2020/12/01 13:02:10;;;;;;;0.75;0.75;;;2.80;99.90;;;;;;5108363;28;20553;-75
2020/12/01 13:04:36;;;;;;;2.15;1.95;;;2.80;99.90;;;;;;5108434;28;20197;-74
2020/12/01 13:07:01;;;;;;;1.30;1.20;;;2.80;99.90;;;;;;5109747;28;20242;-75
2020/12/01 13:09:27;;;;;;;0.73;0.73;;;2.90;99.90;;;;;;5095406;28;20224;-75
2020/12/01 13:11:53;;;;;;;0.25;0.25;;;3.00;99.90;;;;;;5089356;28;20206;-74
2020/12/01 13:14:19;;;;;;;0.63;0.63;;;3.10;99.90;;;;;;5089268;28;20152;-75
2020/12/01 13:16:49;;;;;;;0.20;0.20;;;3.10;99.90;;;;;;5088095;28;20600;-74
2020/12/01 13:19:15;;;;;;;0.17;0.17;;;3.10;99.90;;;;;;5088982;28;20196;-74
2020/12/01 13:21:41;;;;;;;0.88;0.85;;;3.20;99.90;;;;;;5089278;28;20156;-74
2020/12/01 13:24:07;;;;;;;2.47;0.95;;;3.10;99.90;;;;;;5089139;28;20188;-74
2020/12/01 13:26:33;;;;;;;0.30;0.30;;;3.20;99.90;;;;;;5087950;28;20178;-75
2020/12/01 13:28:59;;;;;;;0.43;0.43;;;3.10;99.90;;;;;;5088779;28;20163;-75
2020/12/01 13:31:25;;;;;;;1.13;1.10;;;3.20;99.90;;;;;;5088385;28;20156;-74
2020/12/01 13:33:51;;;;;;;0.38;0.38;;;3.30;99.90;;;;;;5092560;28;20258;-75
2020/12/01 13:36:22;;;;;;;0.30;0.30;;;3.20;99.90;;;;;;5089104;28;20167;-75
2020/12/01 13:38:48;;;;;;;0.80;0.75;;;3.20;99.90;;;;;;5088307;28;20231;-74
2020/12/01 13:41:15;;;;;;;0.38;0.38;;;3.20;99.90;;;;;;5097839;28;20214;-74
2020/12/01 13:43:41;;;;;;;1.42;1.08;;;3.20;99.90;;;;;;5108480;28;20195;-74
2020/12/01 13:46:08;;;;;;;0.63;0.63;;;3.20;99.90;;;;;;5109145;28;20616;-68
2020/12/01 13:48:34;;;;;;;2.55;1.30;;;3.10;99.90;;;;;;5108938;28;20183;-69
2020/12/01 13:51:00;;;;;;;1.17;1.17;;;3.00;99.90;;;;;;5107849;28;20268;-68
2020/12/01 13:53:26;;;;;;;0.30;0.30;;;2.90;99.90;;;;;;5107730;28;20582;-68
2020/12/01 13:55:52;;;;;;;0.55;0.55;;;2.70;99.90;;;;;;5109197;28;20243;-69
2020/12/01 13:58:18;;;;;;;0.85;0.85;;;2.70;99.90;;;;;;5108961;28;20151;-69
2020/12/01 14:00:45;;;;;;;0.57;0.47;;;2.50;99.90;;;;;;5109000;28;20187;-69